Time;durP1;ratioP1;P1;durP2;ratioP2;P2;SDS_P1;SDS_P2;PMS_P1;PMS_P2;Temp;Humidity;BMP_temperature;BMP_pressure;BME280_temperature;BME280_humidity;BME280_pressure;Samples;Min_cycle;Max_cycle;Signal;HPM_P1;HPM_P2
2023/08/23 00:01:37;;;;;;;;;;;;;;;22.52;97.03;96816.09;5044609;28;19961;-73
2023/08/23 00:04:03;;;;;;;;;;;;;;;22.50;97.16;96814.50;5044616;28;19984;-72
2023/08/23 00:06:29;;;;;;;;;;;;;;;22.47;96.64;96811.63;5044670;28;20358;-73
2023/08/23 00:08:55;;;;;;;;;;;;;;;22.46;96.42;96805.44;5044653;28;19961;-84
2023/08/23 00:11:21;;;;;;;;;;;;;;;22.44;97.40;96817.50;5045019;28;20013;-70
2023/08/23 00:13:46;;;;;;;;;;;;;;;22.42;97.26;96811.66;5044265;28;19965;-70
2023/08/23 00:16:12;;;;;;;;;;;;;;;22.38;96.53;96798.06;5044865;28;19967;-70
2023/08/23 00:18:38;;;;;;;;;;;;;;;22.34;97.05;96798.91;5044712;28;19959;-69
2023/08/23 00:21:04;;;;;;;;;;;;;;;22.31;98.09;96804.84;5045219;28;19963;-70
2023/08/23 00:23:30;;;;;;;;;;;;;;;22.28;97.65;96803.53;5044231;28;20131;-70
2023/08/23 00:25:56;;;;;;;;;;;;;;;22.23;98.06;96791.00;5044121;28;20148;-69
2023/08/23 00:28:22;;;;;;;;;;;;;;;22.20;98.19;96796.91;5026757;28;20236;-88
2023/08/23 00:30:51;;;;;;;;;;;;;;;22.15;98.24;96791.59;5026971;28;20248;-87
2023/08/23 00:33:17;;;;;;;;;;;;;;;22.12;98.60;96783.38;5026810;28;19965;-87
2023/08/23 00:35:43;;;;;;;;;;;;;;;22.09;99.23;96787.44;5044327;28;19970;-88
2023/08/23 00:38:09;;;;;;;;;;;;;;;22.05;98.46;96781.06;5044447;28;19965;-87
2023/08/23 00:40:35;;;;;;;;;;;;;;;22.02;99.15;96786.94;5044545;28;19964;-87
2023/08/23 00:43:01;;;;;;;;;;;;;;;21.97;99.29;96784.34;5044584;28;19982;-88
2023/08/23 00:45:28;;;;;;;;;;;;;;;21.91;98.95;96775.56;5044366;28;19970;-73
2023/08/23 00:47:54;;;;;;;;;;;;;;;21.87;99.30;96780.69;5044463;28;19958;-70
2023/08/23 00:50:20;;;;;;;;;;;;;;;21.83;99.50;96776.97;5045408;28;20146;-70
2023/08/23 00:52:46;;;;;;;;;;;;;;;21.80;99.70;96779.44;5047946;28;19945;-69
2023/08/23 00:55:12;;;;;;;;;;;;;;;21.76;99.24;96776.53;5048643;28;19957;-70
2023/08/23 00:57:37;;;;;;;;;;;;;;;21.74;99.49;96785.91;5048319;28;20021;-69
2023/08/23 01:00:04;;;;;;;;;;;;;;;21.69;99.28;96784.03;5030262;28;19987;-70
2023/08/23 01:02:30;;;;;;;;;;;;;;;21.67;99.75;96784.34;5048216;28;19954;-70
2023/08/23 01:04:56;;;;;;;;;;;;;;;21.66;100.00;96788.09;5046840;28;19966;-85
2023/08/23 01:07:30;;;;;;;;;;;;;;;21.63;100.00;96788.66;5047960;28;19957;-72
2023/08/23 01:10:02;;;;;;;;;;;;;;;21.59;99.71;96784.97;5048160;28;19963;-72
2023/08/23 01:12:40;;;;;;;;;;;;;;;21.55;100.00;96783.91;5048255;28;20129;-72
2023/08/23 01:15:07;;;;;;;;;;;;;;;21.52;100.00;96797.03;5047985;28;19964;-73
2023/08/23 01:17:34;;;;;;;;;;;;;;;21.49;100.00;96777.03;5047546;28;19971;-73
2023/08/23 01:20:01;;;;;;;;;;;;;;;21.48;100.00;96784.25;5048175;28;19964;-73
2023/08/23 01:22:29;;;;;;;;;;;;;;;21.46;100.00;96788.25;5047369;28;19964;-74
2023/08/23 01:24:55;;;;;;;;;;;;;;;21.43;100.00;96784.28;5047219;28;19963;-70
2023/08/23 01:27:21;;;;;;;;;;;;;;;21.42;100.00;96777.34;5047474;28;19952;-70
2023/08/23 01:29:47;;;;;;;;;;;;;;;21.39;100.00;96777.88;5047149;28;20241;-69
2023/08/23 01:32:29;;;;;;;;;;;;;;;21.39;100.00;96780.53;5047516;28;19964;-70
2023/08/23 01:35:00;;;;;;;;;;;;;;;21.37;100.00;96782.69;5047220;28;20036;-70
2023/08/23 01:37:26;;;;;;;;;;;;;;;21.35;100.00;96784.84;5047559;28;19958;-70
2023/08/23 01:39:53;;;;;;;;;;;;;;;21.33;100.00;96784.31;5047478;28;19961;-73
2023/08/23 01:42:20;;;;;;;;;;;;;;;21.32;100.00;96792.63;5047003;28;19986;-73
2023/08/23 01:44:46;;;;;;;;;;;;;;;21.31;100.00;96783.78;5046892;28;20218;-72
2023/08/23 01:47:12;;;;;;;;;;;;;;;21.30;100.00;96784.88;5047468;28;19958;-72
2023/08/23 01:49:38;;;;;;;;;;;;;;;21.31;100.00;96773.13;5047497;28;19955;-72
2023/08/23 01:52:04;;;;;;;;;;;;;;;21.31;100.00;96783.00;5046744;28;19975;-72
2023/08/23 01:54:29;;;;;;;;;;;;;;;21.29;100.00;96778.75;5047096;28;19955;-72
2023/08/23 01:56:55;;;;;;;;;;;;;;;21.30;100.00;96787.56;5046976;28;20251;-71
2023/08/23 01:59:21;;;;;;;;;;;;;;;21.28;100.00;96785.16;5047025;28;19953;-75
2023/08/23 02:01:47;;;;;;;;;;;;;;;21.30;100.00;96790.22;5046447;28;19956;-72
2023/08/23 02:04:13;;;;;;;;;;;;;;;21.28;100.00;96779.81;5047214;28;20153;-72
2023/08/23 02:06:39;;;;;;;;;;;;;;;21.28;100.00;96781.69;5046959;28;19968;-72
2023/08/23 02:09:05;;;;;;;;;;;;;;;21.26;100.00;96781.97;5046920;28;20022;-73
2023/08/23 02:11:32;;;;;;;;;;;;;;;21.29;100.00;96789.44;5046847;28;19945;-72
2023/08/23 02:13:58;;;;;;;;;;;;;;;21.28;100.00;96793.16;5047149;28;19962;-72
2023/08/23 02:16:24;;;;;;;;;;;;;;;21.29;100.00;96792.09;5046524;28;19954;-73
2023/08/23 02:18:50;;;;;;;;;;;;;;;21.28;100.00;96785.16;5029241;28;20259;-72
2023/08/23 02:21:16;;;;;;;;;;;;;;;21.26;100.00;96778.50;5046457;28;19965;-71
2023/08/23 02:23:42;;;;;;;;;;;;;;;21.24;100.00;96778.00;5046424;28;19951;-72
2023/08/23 02:26:07;;;;;;;;;;;;;;;21.22;100.00;96772.16;5046382;28;20251;-72
2023/08/23 02:28:33;;;;;;;;;;;;;;;21.20;100.00;96769.75;5046493;28;19965;-71
2023/08/23 02:31:05;;;;;;;;;;;;;;;21.18;100.00;96773.78;5046581;28;20037;-72
2023/08/23 02:33:31;;;;;;;;;;;;;;;21.14;100.00;96767.41;5046023;28;19967;-72
2023/08/23 02:35:57;;;;;;;;;;;;;;;21.11;100.00;96773.31;5046486;28;19955;-76
2023/08/23 02:38:23;;;;;;;;;;;;;;;21.08;100.00;96777.28;5046380;28;19959;-72
2023/08/23 02:40:48;;;;;;;;;;;;;;;21.06;100.00;96777.59;5046156;28;19942;-71
2023/08/23 02:43:14;;;;;;;;;;;;;;;21.04;100.00;96779.75;5046616;28;19958;-72
2023/08/23 02:45:41;;;;;;;;;;;;;;;21.03;100.00;96782.66;5046255;28;19960;-72
2023/08/23 02:48:08;;;;;;;;;;;;;;;21.01;100.00;96774.94;5045905;28;19959;-72
2023/08/23 02:50:34;;;;;;;;;;;;;;;21.01;100.00;96777.59;5045907;28;19961;-72
2023/08/23 02:52:59;;;;;;;;;;;;;;;21.02;100.00;96778.41;5045862;28;19958;-72
2023/08/23 02:55:25;;;;;;;;;;;;;;;21.02;100.00;96781.88;5045947;28;19969;-75
2023/08/23 02:57:51;;;;;;;;;;;;;;;21.03;100.00;96777.34;5045997;28;19974;-90
2023/08/23 03:00:17;;;;;;;;;;;;;;;21.04;100.00;96776.25;5046074;28;19962;-90
2023/08/23 03:02:43;;;;;;;;;;;;;;;21.04;100.00;96770.91;5045623;28;19970;-90
2023/08/23 03:05:09;;;;;;;;;;;;;;;21.02;100.00;96775.72;5046112;28;19961;-90
2023/08/23 03:07:35;;;;;;;;;;;;;;;21.01;100.00;96782.16;5045994;28;19963;-90
2023/08/23 03:10:00;;;;;;;;;;;;;;;20.99;100.00;96782.41;5045556;28;19951;-89
2023/08/23 03:12:26;;;;;;;;;;;;;;;20.98;100.00;96785.38;5045919;28;19961;-72
2023/08/23 03:14:52;;;;;;;;;;;;;;;20.98;100.00;96782.72;5044745;28;19957;-76
2023/08/23 03:17:18;;;;;;;;;;;;;;;20.95;100.00;96784.03;5045570;28;19969;-75
2023/08/23 03:19:44;;;;;;;;;;;;;;;20.93;100.00;96774.72;5045317;28;19953;-75
2023/08/23 03:22:10;;;;;;;;;;;;;;;20.89;100.00;96769.16;5045322;28;19963;-75
2023/08/23 03:24:36;;;;;;;;;;;;;;;20.88;100.00;96781.69;5045313;28;19950;-75
2023/08/23 03:27:02;;;;;;;;;;;;;;;20.84;100.00;96775.31;5045293;28;19971;-76
2023/08/23 03:29:27;;;;;;;;;;;;;;;20.82;100.00;96764.13;5045382;28;19953;-75
2023/08/23 03:31:53;;;;;;;;;;;;;;;20.80;100.00;96768.16;5045365;28;19956;-70
2023/08/23 03:34:19;;;;;;;;;;;;;;;20.75;100.00;96766.31;5045466;28;19953;-69
2023/08/23 03:36:45;;;;;;;;;;;;;;;20.73;100.00;96773.78;5045275;28;19963;-70
2023/08/23 03:39:11;;;;;;;;;;;;;;;20.66;100.00;96768.75;5044804;28;20121;-70
2023/08/23 03:41:36;;;;;;;;;;;;;;;20.61;100.00;96770.66;5044806;28;19960;-69
2023/08/23 03:44:02;;;;;;;;;;;;;;;20.58;100.00;96768.50;5044829;28;19965;-70
2023/08/23 03:46:28;;;;;;;;;;;;;;;20.55;100.00;96763.72;5044717;28;20228;-69
2023/08/23 03:48:54;;;;;;;;;;;;;;;20.53;100.00;96756.00;5045147;28;19951;-88
2023/08/23 03:51:20;;;;;;;;;;;;;;;20.52;100.00;96750.97;5044881;28;19961;-75
2023/08/23 03:53:46;;;;;;;;;;;;;;;20.50;100.00;96747.78;5044814;28;20016;-73
2023/08/23 03:56:12;;;;;;;;;;;;;;;20.50;100.00;96750.44;5044795;28;19963;-72
2023/08/23 03:58:37;;;;;;;;;;;;;;;20.48;100.00;96756.81;5027157;28;19956;-73
2023/08/23 04:01:03;;;;;;;;;;;;;;;20.46;100.00;96758.97;5044851;28;19962;-72
2023/08/23 04:03:29;;;;;;;;;;;;;;;20.44;100.00;96763.75;5044880;28;19956;-72
2023/08/23 04:05:55;;;;;;;;;;;;;;;20.43;100.00;96767.50;5044826;28;19967;-72
2023/08/23 04:08:21;;;;;;;;;;;;;;;20.43;100.00;96780.00;5044868;28;19954;-70
2023/08/23 04:10:47;;;;;;;;;;;;;;;20.42;100.00;96783.75;5044830;28;19943;-89
2023/08/23 04:13:13;;;;;;;;;;;;;;;20.40;100.00;96780.56;5044501;28;19966;-89
2023/08/23 04:15:43;;;;;;;;;;;;;;;20.39;100.00;96789.63;5045038;28;19961;-88
2023/08/23 04:18:08;;;;;;;;;;;;;;;20.37;100.00;96784.59;5044461;28;19952;-89
2023/08/23 04:20:34;;;;;;;;;;;;;;;20.35;100.00;96777.91;5027242;28;19968;-89
2023/08/23 04:23:00;;;;;;;;;;;;;;;20.33;100.00;96782.75;5044425;28;20158;-89
2023/08/23 04:25:26;;;;;;;;;;;;;;;20.31;100.00;96793.66;5044335;28;19970;-74
2023/08/23 04:27:52;;;;;;;;;;;;;;;20.28;100.00;96788.84;5044700;28;19962;-88
2023/08/23 04:30:18;;;;;;;;;;;;;;;20.25;100.00;96787.53;5044486;28;19968;-75
2023/08/23 04:32:44;;;;;;;;;;;;;;;20.24;100.00;96785.97;5044603;28;19962;-75
2023/08/23 04:35:10;;;;;;;;;;;;;;;20.23;100.00;96783.56;5044551;28;19956;-75
2023/08/23 04:37:36;;;;;;;;;;;;;;;20.20;100.00;96786.75;5044415;28;19960;-75
2023/08/23 04:40:02;;;;;;;;;;;;;;;20.17;100.00;96793.41;5044703;28;20215;-75
2023/08/23 04:42:31;;;;;;;;;;;;;;;20.18;100.00;96791.53;5044063;28;19979;-75
2023/08/23 04:45:00;;;;;;;;;;;;;;;20.17;100.00;96784.63;5044501;28;19963;-75
2023/08/23 04:47:27;;;;;;;;;;;;;;;20.16;100.00;96783.84;5044053;28;19967;-75
2023/08/23 04:49:53;;;;;;;;;;;;;;;20.16;100.00;96783.84;5044097;28;19965;-75
2023/08/23 04:52:18;;;;;;;;;;;;;;;20.16;100.00;96773.19;5026766;28;19997;-75
2023/08/23 04:54:44;;;;;;;;;;;;;;;20.17;100.00;96771.31;5044171;28;19955;-75
2023/08/23 04:57:10;;;;;;;;;;;;;;;20.18;100.00;96770.25;5044355;28;19955;-75
2023/08/23 04:59:36;;;;;;;;;;;;;;;20.20;100.00;96776.09;5044265;28;19966;-75
2023/08/23 05:02:02;;;;;;;;;;;;;;;20.24;100.00;96779.81;5043812;28;19962;-75
2023/08/23 05:04:28;;;;;;;;;;;;;;;20.26;100.00;96772.34;5044378;28;19966;-89
2023/08/23 05:06:53;;;;;;;;;;;;;;;20.31;100.00;96776.88;5044182;28;19967;-72
2023/08/23 05:09:19;;;;;;;;;;;;;;;20.35;100.00;96769.91;5044284;28;19959;-71
2023/08/23 05:11:45;;;;;;;;;;;;;;;20.39;100.00;96770.97;5044222;28;20147;-71
2023/08/23 05:14:11;;;;;;;;;;;;;;;20.45;100.00;96780.53;5044247;28;19951;-71
2023/08/23 05:16:37;;;;;;;;;;;;;;;20.50;100.00;96774.41;5043795;28;19958;-71
2023/08/23 05:19:03;;;;;;;;;;;;;;;20.59;100.00;96778.13;5043826;28;19959;-72
2023/08/23 05:21:28;;;;;;;;;;;;;;;20.65;100.00;96777.81;5026326;28;19971;-70
2023/08/23 05:23:54;;;;;;;;;;;;;;;20.75;100.00;96779.63;5043876;28;19955;-70
2023/08/23 05:26:20;;;;;;;;;;;;;;;20.88;100.00;96784.34;5044013;28;19988;-69
2023/08/23 05:28:46;;;;;;;;;;;;;;;21.04;100.00;96784.25;5044162;28;20283;-70
2023/08/23 05:31:12;;;;;;;;;;;;;;;21.21;100.00;96779.34;5043512;28;20019;-70
2023/08/23 05:33:39;;;;;;;;;;;;;;;21.39;100.00;96774.41;5044094;28;19959;-70
2023/08/23 05:36:05;;;;;;;;;;;;;;;21.58;100.00;96764.66;5044012;28;19958;-70
2023/08/23 05:38:33;;;;;;;;;;;;;;;21.77;100.00;96769.31;5046903;28;20152;-70
2023/08/23 05:40:59;;;;;;;;;;;;;;;21.99;100.00;96763.50;5047769;28;19966;-75
2023/08/23 05:43:25;;;;;;;;;;;;;;;22.24;100.00;96768.56;5047676;28;19969;-88
2023/08/23 05:45:53;;;;;;;;;;;;;;;22.50;100.00;96761.03;5029814;28;19973;-88
2023/08/23 05:48:22;;;;;;;;;;;;;;;22.69;97.55;96750.34;5047472;28;19969;-87
2023/08/23 05:50:48;;;;;;;;;;;;;;;22.89;95.93;96743.16;5047045;28;19959;-87
2023/08/23 05:53:20;;;;;;;;;;;;;;;23.13;95.27;96739.63;5047229;28;19962;-88
2023/08/23 05:55:47;;;;;;;;;;;;;;;23.36;94.01;96735.25;5029636;28;19963;-87
2023/08/23 05:58:13;;;;;;;;;;;;;;;23.61;93.45;96744.72;5047163;28;19957;-72
2023/08/23 06:00:39;;;;;;;;;;;;;;;;;;5029436;28;19959;-70
2023/08/23 06:03:05;;;;;;;;;;;;;;;24.01;91.85;96745.09;5047127;28;19955;-70
2023/08/23 06:05:31;;;;;;;;;;;;;;;24.16;89.89;96727.94;5047218;28;19950;-70
2023/08/23 06:07:56;;;;;;;;;;;;;;;24.30;89.03;96734.06;5046597;28;19961;-69
2023/08/23 06:10:22;;;;;;;;;;;;;;;24.45;88.14;96741.78;5047048;28;19952;-70
2023/08/23 06:12:48;;;;;;;;;;;;;;;24.54;85.66;96723.13;5046590;28;19960;-69
2023/08/23 06:15:14;;;;;;;;;;;;;;;24.47;85.55;96726.19;5046744;28;19963;-70
2023/08/23 06:17:40;;;;;;;;;;;;;;;24.20;87.92;96745.00;5046614;28;19961;-87
2023/08/23 06:20:06;;;;;;;;;;;;;;;24.05;89.40;96754.13;5046776;28;19964;-70
2023/08/23 06:22:32;;;;;;;;;;;;;;;23.96;89.68;96755.88;5046806;28;19957;-69
2023/08/23 06:24:58;;;;;;;;;;;;;;;23.96;89.31;96753.22;5046546;28;19968;-69
2023/08/23 06:27:24;;;;;;;;;;;;;;;24.02;89.82;96749.34;5046739;28;19972;-71
2023/08/23 06:29:50;;;;;;;;;;;;;;;24.04;89.85;96756.03;5046554;28;19994;-69
2023/08/23 06:32:15;;;;;;;;;;;;;;;24.04;89.87;96747.16;5046600;28;19957;-70
2023/08/23 06:34:41;;;;;;;;;;;;;;;24.09;89.92;96749.78;5046571;28;19960;-76
2023/08/23 06:37:07;;;;;;;;;;;;;;;24.16;90.54;96757.41;5028948;28;19959;-75
2023/08/23 06:39:33;;;;;;;;;;;;;;;24.29;89.95;96743.97;5045910;28;19956;-75
2023/08/23 06:41:59;;;;;;;;;;;;;;;24.41;91.37;96762.25;5046376;28;19962;-75
2023/08/23 06:44:25;;;;;;;;;;;;;;;24.60;89.86;96750.66;5046340;28;19965;-75
2023/08/23 06:46:50;;;;;;;;;;;;;;;24.76;88.75;96743.88;5045933;28;20014;-75
2023/08/23 06:49:16;;;;;;;;;;;;;;;24.96;87.58;96741.81;5045809;28;19966;-75
2023/08/23 06:51:42;;;;;;;;;;;;;;;25.07;86.30;96732.41;5046040;28;19957;-75
2023/08/23 06:54:08;;;;;;;;;;;;;;;25.09;84.14;96725.66;5045831;28;19958;-71
2023/08/23 06:56:34;;;;;;;;;;;;;;;25.12;83.08;96722.34;5046126;28;19962;-72
2023/08/23 06:59:00;;;;;;;;;;;;;;;25.19;84.96;96732.66;5046020;28;19958;-72
2023/08/23 07:01:26;;;;;;;;;;;;;;;25.28;84.84;96730.06;5045588;28;20005;-73
2023/08/23 07:03:52;;;;;;;;;;;;;;;25.42;83.67;96716.59;5045430;28;19962;-73
2023/08/23 07:06:19;;;;;;;;;;;;;;;25.48;81.77;96705.41;5045385;28;20252;-72
2023/08/23 07:08:45;;;;;;;;;;;;;;;25.59;81.78;96715.88;5045466;28;19963;-72
2023/08/23 07:11:10;;;;;;;;;;;;;;;25.70;83.53;96725.25;5045938;28;20002;-72
2023/08/23 07:13:38;;;;;;;;;;;;;;;25.73;81.20;96712.00;5045477;28;19956;-73
2023/08/23 07:16:04;;;;;;;;;;;;;;;25.80;82.72;96716.91;5045766;28;19967;-72
2023/08/23 07:18:30;;;;;;;;;;;;;;;25.88;81.24;96718.06;5045466;28;19960;-72
2023/08/23 07:20:56;;;;;;;;;;;;;;;25.92;80.05;96713.69;5045412;28;19958;-72
2023/08/23 07:23:22;;;;;;;;;;;;;;;26.02;80.70;96718.00;5045393;28;19969;-71
2023/08/23 07:25:48;;;;;;;;;;;;;;;26.09;79.65;96713.75;5045364;28;19964;-72
2023/08/23 07:28:13;;;;;;;;;;;;;;;26.18;78.90;96713.75;5045010;28;19961;-72
2023/08/23 07:30:46;;;;;;;;;;;;;;;26.17;77.45;96704.13;5045443;28;19957;-75
2023/08/23 07:33:12;;;;;;;;;;;;;;;25.98;80.77;96730.47;5045452;28;20164;-70
2023/08/23 07:35:37;;;;;;;;;;;;;;;25.80;79.78;96722.28;5045389;28;19939;-70
2023/08/23 07:38:03;;;;;;;;;;;;;;;25.67;81.60;96734.72;5044984;28;19966;-70
2023/08/23 07:40:29;;;;;;;;;;;;;;;25.62;80.36;96724.13;5045535;28;19949;-70
2023/08/23 07:42:55;;;;;;;;;;;;;;;25.68;80.17;96720.22;5044866;28;19956;-70
2023/08/23 07:45:21;;;;;;;;;;;;;;;25.83;80.51;96729.75;5045243;28;19981;-70
2023/08/23 07:47:47;;;;;;;;;;;;;;;25.97;80.54;96723.50;5044925;28;20163;-77
2023/08/23 07:50:13;;;;;;;;;;;;;;;26.04;78.72;96721.16;5045009;28;19979;-72
2023/08/23 07:52:39;;;;;;;;;;;;;;;26.17;79.39;96719.47;5045070;28;19962;-75
2023/08/23 07:55:05;;;;;;;;;;;;;;;26.30;77.05;96702.41;5044862;28;19957;-75
2023/08/23 07:57:30;;;;;;;;;;;;;;;26.34;76.58;96703.38;5044941;28;20156;-75
2023/08/23 07:59:56;;;;;;;;;;;;;;;26.42;79.11;96709.88;5044366;28;19957;-74
2023/08/23 08:02:22;;;;;;;;;;;;;;;26.55;78.61;96727.00;5044934;28;20008;-74
2023/08/23 08:04:48;;;;;;;;;;;;;;;26.64;77.68;96715.16;5044461;28;19947;-74
2023/08/23 08:07:14;;;;;;;;;;;;;;;26.58;79.33;96721.00;5044405;28;19966;-70
2023/08/23 08:09:40;;;;;;;;;;;;;;;26.46;75.53;96708.94;5044454;28;19957;-77
2023/08/23 08:12:06;;;;;;;;;;;;;;;26.40;78.76;96731.69;5044445;28;19969;-77
2023/08/23 08:14:32;;;;;;;;;;;;;;;26.27;75.44;96703.03;5044497;28;19954;-77
2023/08/23 08:16:57;;;;;;;;;;;;;;;26.06;78.92;96725.13;5044154;28;20178;-77
2023/08/23 08:19:23;;;;;;;;;;;;;;;25.97;78.53;96721.59;5044524;28;20236;-77
2023/08/23 08:21:49;;;;;;;;;;;;;;;25.79;77.87;96733.38;5044468;28;20249;-78
2023/08/23 08:24:15;;;;;;;;;;;;;;;25.64;80.73;96745.28;5044549;28;20130;-76
2023/08/23 08:26:41;;;;;;;;;;;;;;;25.55;81.63;96758.66;5044671;28;20264;-77
2023/08/23 08:29:07;;;;;;;;;;;;;;;25.43;80.10;96743.13;5044627;28;19953;-87
2023/08/23 08:31:32;;;;;;;;;;;;;;;25.40;82.10;96759.06;5044701;28;19971;-86
2023/08/23 08:33:59;;;;;;;;;;;;;;;25.35;80.83;96745.78;5044562;28;20002;-85
2023/08/23 08:36:25;;;;;;;;;;;;;;;25.35;83.05;96762.66;5044559;28;19948;-86
2023/08/23 08:38:51;;;;;;;;;;;;;;;25.43;83.87;96761.94;5044674;28;20005;-86
2023/08/23 08:41:17;;;;;;;;;;;;;;;25.58;83.69;96763.44;5044627;28;19963;-85
2023/08/23 08:43:43;;;;;;;;;;;;;;;25.67;81.69;96752.75;5044173;28;19970;-76
2023/08/23 08:46:09;;;;;;;;;;;;;;;25.80;82.34;96748.38;5044245;28;20132;-77
2023/08/23 08:48:35;;;;;;;;;;;;;;;26.12;83.02;96760.72;5044242;28;19962;-77
2023/08/23 08:51:02;;;;;;;;;;;;;;;26.29;79.91;96735.78;5044196;28;19967;-77
2023/08/23 08:53:30;;;;;;;;;;;;;;;26.39;80.51;96740.06;5044540;28;19967;-77
2023/08/23 08:55:56;;;;;;;;;;;;;;;26.56;79.90;96739.31;5044250;28;20136;-76
2023/08/23 08:58:23;;;;;;;;;;;;;;;26.64;79.04;96731.28;5043874;28;19967;-77
2023/08/23 09:00:50;;;;;;;;;;;;;;;26.60;78.16;96730.31;5044330;28;19961;-77
2023/08/23 09:03:19;;;;;;;;;;;;;;;26.69;77.45;96733.03;5044331;28;19963;-77
2023/08/23 09:05:47;;;;;;;;;;;;;;;26.77;78.12;96731.47;5043871;28;19962;-85
2023/08/23 09:08:14;;;;;;;;;;;;;;;26.88;78.67;96736.22;5044313;28;19987;-87
2023/08/23 09:10:40;;;;;;;;;;;;;;;26.98;77.72;96732.41;5043971;28;20177;-87
2023/08/23 09:13:06;;;;;;;;;;;;;;;27.06;77.89;96730.81;5047936;28;19962;-86
2023/08/23 09:15:31;;;;;;;;;;;;;;;27.19;77.57;96727.16;5047966;28;19958;-86
2023/08/23 09:17:59;;;;;;;;;;;;;;;27.37;76.36;96732.56;5047566;28;20311;-87
2023/08/23 09:20:25;;;;;;;;;;;;;;;27.47;75.94;96734.94;5047889;28;19962;-76
2023/08/23 09:22:52;;;;;;;;;;;;;;;27.54;76.30;96730.63;5047923;28;20020;-70
2023/08/23 09:25:17;;;;;;;;;;;;;;;27.61;74.85;96718.56;5048029;28;19960;-70
2023/08/23 09:27:43;;;;;;;;;;;;;;;27.60;74.18;96709.69;5047754;28;19972;-70
2023/08/23 09:30:09;;;;;;;;;;;;;;;27.61;75.65;96719.34;5047776;28;20304;-70
2023/08/23 09:32:35;;;;;;;;;;;;;;;27.63;71.29;96700.16;5047307;28;20133;-70
2023/08/23 09:35:10;;;;;;;;;;;;;;;27.65;72.52;96712.19;5048109;28;19965;-70
2023/08/23 09:37:38;;;;;;;;;;;;;;;27.75;72.26;96702.97;5047636;28;19974;-70
2023/08/23 09:40:04;;;;;;;;;;;;;;;27.82;71.05;96689.78;5047739;28;19966;-75
2023/08/23 09:42:33;;;;;;;;;;;;;;;27.83;72.11;96699.47;5046741;28;20518;-74
2023/08/23 09:45:01;;;;;;;;;;;;;;;27.80;72.66;96710.88;5047538;28;20147;-74
2023/08/23 09:47:30;;;;;;;;;;;;;;;27.84;69.33;96697.56;5047454;28;19968;-74
2023/08/23 09:49:58;;;;;;;;;;;;;;;27.86;71.04;96712.31;5047480;28;19977;-74
2023/08/23 09:52:29;;;;;;;;;;;;;;;27.92;72.51;96713.72;5047347;28;19983;-74
2023/08/23 09:54:55;;;;;;;;;;;;;;;27.96;73.43;96723.88;5047348;28;19958;-74
2023/08/23 09:57:21;;;;;;;;;;;;;;;28.05;70.91;96716.53;5046749;28;19981;-88
2023/08/23 09:59:47;;;;;;;;;;;;;;;28.16;72.50;96727.72;5047509;28;19962;-72
2023/08/23 10:02:15;;;;;;;;;;;;;;;28.26;71.23;96717.34;5047250;28;19964;-73
2023/08/23 10:04:42;;;;;;;;;;;;;;;28.39;70.39;96717.44;5046872;28;20267;-72
2023/08/23 10:07:08;;;;;;;;;;;;;;;28.51;71.40;96720.25;5029002;28;20026;-72
2023/08/23 10:09:38;;;;;;;;;;;;;;;28.58;68.47;96711.63;5046575;28;19966;-72
2023/08/23 10:12:05;;;;;;;;;;;;;;;28.63;69.50;96711.47;5046823;28;20131;-72
2023/08/23 10:14:33;;;;;;;;;;;;;;;28.64;68.86;96715.72;5046183;28;20268;-72
2023/08/23 10:17:01;;;;;;;;;;;;;;;28.71;69.39;96710.59;5046354;28;20265;-85
2023/08/23 10:19:26;;;;;;;;;;;;;;;28.81;68.79;96701.31;5046645;28;19966;-72
2023/08/23 10:21:52;;;;;;;;;;;;;;;28.95;70.37;96709.94;5029801;28;19959;-72
2023/08/23 10:24:22;;;;;;;;;;;;;;;29.03;65.31;96686.69;5046179;28;19962;-71
2023/08/23 10:26:52;;;;;;;;;;;;;;;29.13;69.60;96716.78;5046623;28;19966;-71
2023/08/23 10:29:28;;;;;;;;;;;;;;;29.24;68.96;96709.06;5046734;28;19962;-71
2023/08/23 10:31:54;;;;;;;;;;;;;;;29.34;67.59;96716.75;5046386;28;19959;-72
2023/08/23 10:34:27;;;;;;;;;;;;;;;29.41;66.36;96707.31;5046340;28;19960;-75
2023/08/23 10:36:53;;;;;;;;;;;;;;;29.46;67.74;96715.19;5046678;28;19966;-70
2023/08/23 10:39:26;;;;;;;;;;;;;;;29.52;67.92;96716.56;5046438;28;19959;-70
2023/08/23 10:41:55;;;;;;;;;;;;;;;29.62;65.85;96708.03;5046428;28;19960;-70
2023/08/23 10:44:21;;;;;;;;;;;;;;;29.65;63.48;96701.16;5046715;28;19988;-70
2023/08/23 10:46:49;;;;;;;;;;;;;;;29.70;66.22;96717.97;5046267;28;19970;-70
2023/08/23 10:49:20;;;;;;;;;;;;;;;29.82;64.77;96702.88;5045909;28;20130;-70
2023/08/23 10:51:46;;;;;;;;;;;;;;;29.98;63.97;96714.63;5045861;28;19958;-72
2023/08/23 10:54:13;;;;;;;;;;;;;;;30.15;65.24;96713.59;5046158;28;19957;-72
2023/08/23 10:56:39;;;;;;;;;;;;;;;30.21;64.14;96711.47;5045890;28;20123;-74
2023/08/23 10:59:08;;;;;;;;;;;;;;;30.30;66.64;96723.78;5045914;28;19957;-72
2023/08/23 11:01:34;;;;;;;;;;;;;;;30.40;63.26;96706.28;5045916;28;19955;-72
2023/08/23 11:04:05;;;;;;;;;;;;;;;30.36;62.67;96710.78;5045830;28;20035;-72
2023/08/23 11:06:31;;;;;;;;;;;;;;;30.37;62.39;96712.38;5045850;28;19962;-72
2023/08/23 11:08:58;;;;;;;;;;;;;;;30.42;64.28;96720.25;5045424;28;19958;-72
2023/08/23 11:11:29;;;;;;;;;;;;;;;30.55;65.57;96712.91;5045984;28;19963;-86
2023/08/23 11:13:55;;;;;;;;;;;;;;;30.59;61.78;96696.78;5046089;28;20122;-76
2023/08/23 11:16:22;;;;;;;;;;;;;;;30.57;63.42;96709.88;5046067;28;20002;-76
2023/08/23 11:18:49;;;;;;;;;;;;;;;30.54;63.32;96712.13;5045341;28;19955;-76
2023/08/23 11:21:15;;;;;;;;;;;;;;;30.48;61.05;96712.72;5045786;28;19964;-76
2023/08/23 11:23:41;;;;;;;;;;;;;;;30.51;60.57;96702.00;5045371;28;19959;-77
2023/08/23 11:26:07;;;;;;;;;;;;;;;30.39;59.04;96703.94;5045795;28;20004;-76
2023/08/23 11:28:33;;;;;;;;;;;;;;;30.35;61.26;96693.78;5044967;28;19963;-87
2023/08/23 11:30:59;;;;;;;;;;;;;;;30.38;63.89;96719.38;5045427;28;19967;-87
2023/08/23 11:33:25;;;;;;;;;;;;;;;30.50;63.20;96711.22;5045408;28;19961;-72
2023/08/23 11:35:52;;;;;;;;;;;;;;;30.62;63.77;96713.13;5044587;28;19951;-72
2023/08/23 11:38:17;;;;;;;;;;;;;;;30.71;62.10;96711.06;5045437;28;19962;-72
2023/08/23 11:40:44;;;;;;;;;;;;;;;30.88;61.99;96709.25;5045335;28;19982;-72
2023/08/23 11:43:13;;;;;;;;;;;;;;;30.92;62.57;96705.50;5045589;28;19945;-72
2023/08/23 11:45:40;;;;;;;;;;;;;;;30.98;61.97;96711.47;5044850;28;19957;-73
2023/08/23 11:48:07;;;;;;;;;;;;;;;31.02;62.75;96709.66;5044672;28;19985;-72
2023/08/23 11:50:32;;;;;;;;;;;;;;;31.18;63.42;96708.91;5027245;28;19959;-85
2023/08/23 11:53:01;;;;;;;;;;;;;;;31.35;60.87;96698.56;5044846;28;19960;-85
2023/08/23 11:55:28;;;;;;;;;;;;;;;31.49;61.58;96700.09;5044852;28;19961;-86
2023/08/23 11:57:57;;;;;;;;;;;;;;;31.59;59.29;96690.66;5044889;28;19976;-86
2023/08/23 12:00:23;;;;;;;;;;;;;;;31.51;56.88;96687.75;5044925;28;19983;-86
2023/08/23 12:02:49;;;;;;;;;;;;;;;31.48;59.52;96703.94;5044908;28;19958;-86
2023/08/23 12:05:15;;;;;;;;;;;;;;;31.46;60.20;96704.28;5045003;28;20029;-86
2023/08/23 12:07:41;;;;;;;;;;;;;;;31.47;61.15;96703.13;5044868;28;20125;-76
2023/08/23 12:10:11;;;;;;;;;;;;;;;31.47;59.55;96694.22;5044395;28;19980;-73
2023/08/23 12:12:40;;;;;;;;;;;;;;;31.59;61.40;96696.06;5044432;28;19961;-72
2023/08/23 12:15:06;;;;;;;;;;;;;;;31.67;58.97;96695.13;5045089;28;20260;-73
2023/08/23 12:17:32;;;;;;;;;;;;;;;31.71;60.69;96693.28;5044410;28;19956;-72
2023/08/23 12:19:58;;;;;;;;;;;;;;;31.78;57.04;96685.31;5044407;28;19962;-73
2023/08/23 12:22:24;;;;;;;;;;;;;;;31.74;59.12;96681.72;5044546;28;19970;-73
2023/08/23 12:24:50;;;;;;;;;;;;;;;31.67;58.08;96676.16;5044747;28;20028;-72
2023/08/23 12:27:16;;;;;;;;;;;;;;;31.55;56.75;96677.00;5044502;28;19987;-72
2023/08/23 12:29:42;;;;;;;;;;;;;;;31.55;59.68;96690.56;5044157;28;20207;-72
2023/08/23 12:32:08;;;;;;;;;;;;;;;31.59;57.09;96683.31;5044615;28;19967;-72
2023/08/23 12:34:34;;;;;;;;;;;;;;;31.39;58.01;96679.66;5044630;28;19960;-73
2023/08/23 12:37:00;;;;;;;;;;;;;;;31.39;56.62;96679.66;5044502;28;20015;-73
2023/08/23 12:39:26;;;;;;;;;;;;;;;31.57;59.07;96687.50;5044111;28;19942;-72